sensor_id;sensor_type;location;lat;lon;timestamp;pressure;altitude;pressure_sealevel;temperature;humidity
64253;BME280;50592;52.958;-7.470;2023-02-13T00:02:00;101853.59;;;7.40;100.00
64253;BME280;50592;52.958;-7.470;2023-02-13T00:04:26;101850.88;;;7.42;100.00
64253;BME280;50592;52.958;-7.470;2023-02-13T00:06:52;101857.84;;;7.43;100.00
64253;BME280;50592;52.958;-7.470;2023-02-13T00:09:17;101856.97;;;7.42;100.00
64253;BME280;50592;52.958;-7.470;2023-02-13T00:11:43;101862.16;;;7.44;100.00
64253;BME280;50592;52.958;-7.470;2023-02-13T00:14:09;101861.31;;;7.43;100.00
64253;BME280;50592;52.958;-7.470;2023-02-13T00:16:35;101855.97;;;7.45;100.00
64253;BME280;50592;52.958;-7.470;2023-02-13T00:19:01;101858.59;;;7.45;100.00
64253;BME280;50592;52.958;-7.470;2023-02-13T00:21:27;101857.66;;;7.46;100.00
64253;BME280;50592;52.958;-7.470;2023-02-13T00:23:53;101855.88;;;7.47;100.00
64253;BME280;50592;52.958;-7.470;2023-02-13T00:26:19;101848.06;;;7.45;100.00
64253;BME280;50592;52.958;-7.470;2023-02-13T00:28:45;101849.75;;;7.46;100.00
64253;BME280;50592;52.958;-7.470;2023-02-13T00:31:15;101844.50;;;7.46;100.00
64253;BME280;50592;52.958;-7.470;2023-02-13T00:33:41;101837.56;;;7.45;100.00
64253;BME280;50592;52.958;-7.470;2023-02-13T00:36:14;101849.66;;;7.48;100.00
64253;BME280;50592;52.958;-7.470;2023-02-13T00:38:41;101852.47;;;7.44;100.00
64253;BME280;50592;52.958;-7.470;2023-02-13T00:41:08;101848.81;;;7.47;100.00
64253;BME280;50592;52.958;-7.470;2023-02-13T00:43:35;101854.16;;;7.45;100.00
64253;BME280;50592;52.958;-7.470;2023-02-13T00:46:01;101845.34;;;7.47;100.00
64253;BME280;50592;52.958;-7.470;2023-02-13T00:48:29;101838.19;;;7.49;100.00
64253;BME280;50592;52.958;-7.470;2023-02-13T00:50:55;101851.25;;;7.50;100.00
64253;BME280;50592;52.958;-7.470;2023-02-13T00:53:23;101838.88;;;7.52;100.00
64253;BME280;50592;52.958;-7.470;2023-02-13T00:55:49;101845.00;;;7.53;100.00
64253;BME280;50592;52.958;-7.470;2023-02-13T00:58:16;101847.44;;;7.56;100.00
64253;BME280;50592;52.958;-7.470;2023-02-13T01:00:42;101839.72;;;7.53;100.00
64253;BME280;50592;52.958;-7.470;2023-02-13T01:03:08;101837.84;;;7.55;100.00
64253;BME280;50592;52.958;-7.470;2023-02-13T01:05:34;101838.59;;;7.57;100.00
64253;BME280;50592;52.958;-7.470;2023-02-13T01:08:01;101837.09;;;7.53;100.00
64253;BME280;50592;52.958;-7.470;2023-02-13T01:10:27;101840.38;;;7.56;100.00
64253;BME280;50592;52.958;-7.470;2023-02-13T01:12:52;101839.38;;;7.59;100.00
64253;BME280;50592;52.958;-7.470;2023-02-13T01:15:19;101835.78;;;7.60;100.00
64253;BME280;50592;52.958;-7.470;2023-02-13T01:17:45;101841.06;;;7.60;100.00
64253;BME280;50592;52.958;-7.470;2023-02-13T01:20:13;101834.03;;;7.61;100.00
64253;BME280;50592;52.958;-7.470;2023-02-13T01:22:40;101827.81;;;7.62;100.00
64253;BME280;50592;52.958;-7.470;2023-02-13T01:25:09;101821.72;;;7.61;100.00
64253;BME280;50592;52.958;-7.470;2023-02-13T01:27:34;101825.28;;;7.60;100.00
64253;BME280;50592;52.958;-7.470;2023-02-13T01:30:04;101823.50;;;7.61;100.00
64253;BME280;50592;52.958;-7.470;2023-02-13T01:32:30;101819.31;;;7.56;100.00
64253;BME280;50592;52.958;-7.470;2023-02-13T01:34:56;101817.66;;;7.55;100.00
64253;BME280;50592;52.958;-7.470;2023-02-13T01:37:21;101822.13;;;7.53;100.00
64253;BME280;50592;52.958;-7.470;2023-02-13T01:39:47;101823.94;;;7.53;100.00
64253;BME280;50592;52.958;-7.470;2023-02-13T01:42:24;101817.06;;;7.50;100.00
64253;BME280;50592;52.958;-7.470;2023-02-13T01:45:01;101818.59;;;7.54;100.00
64253;BME280;50592;52.958;-7.470;2023-02-13T01:47:43;101811.63;;;7.53;100.00
64253;BME280;50592;52.958;-7.470;2023-02-13T01:52:47;101803.72;;;7.53;100.00
64253;BME280;50592;52.958;-7.470;2023-02-13T01:55:15;101810.03;;;7.51;100.00
64253;BME280;50592;52.958;-7.470;2023-02-13T01:57:43;101810.88;;;7.51;100.00
64253;BME280;50592;52.958;-7.470;2023-02-13T02:00:14;101805.72;;;7.50;100.00
64253;BME280;50592;52.958;-7.470;2023-02-13T02:02:54;101808.34;;;7.50;100.00
64253;BME280;50592;52.958;-7.470;2023-02-13T02:05:27;101805.03;;;7.46;100.00
64253;BME280;50592;52.958;-7.470;2023-02-13T02:07:57;101807.75;;;7.44;100.00
64253;BME280;50592;52.958;-7.470;2023-02-13T02:10:25;101798.28;;;7.42;100.00
64253;BME280;50592;52.958;-7.470;2023-02-13T02:13:16;101804.94;;;7.48;100.00
64253;BME280;50592;52.958;-7.470;2023-02-13T02:15:47;101797.31;;;7.43;100.00
64253;BME280;50592;52.958;-7.470;2023-02-13T02:18:18;101796.38;;;7.44;100.00
64253;BME280;50592;52.958;-7.470;2023-02-13T02:32:41;101787.94;;;7.39;100.00
64253;BME280;50592;52.958;-7.470;2023-02-13T02:35:26;101795.81;;;7.39;100.00
64253;BME280;50592;52.958;-7.470;2023-02-13T02:38:39;101788.03;;;7.37;100.00
64253;BME280;50592;52.958;-7.470;2023-02-13T02:44:31;101782.09;;;7.34;100.00
64253;BME280;50592;52.958;-7.470;2023-02-13T02:49:53;101781.31;;;7.31;100.00
64253;BME280;50592;52.958;-7.470;2023-02-13T02:56:13;101766.56;;;7.29;100.00
64253;BME280;50592;52.958;-7.470;2023-02-13T02:58:47;101769.28;;;7.27;100.00
64253;BME280;50592;52.958;-7.470;2023-02-13T03:01:36;101769.47;;;7.24;100.00
64253;BME280;50592;52.958;-7.470;2023-02-13T03:04:45;101768.63;;;7.24;100.00
64253;BME280;50592;52.958;-7.470;2023-02-13T03:07:31;101773.19;;;7.20;100.00
64253;BME280;50592;52.958;-7.470;2023-02-13T03:10:00;101768.78;;;7.20;100.00
64253;BME280;50592;52.958;-7.470;2023-02-13T03:13:10;101765.50;;;7.17;100.00
64253;BME280;50592;52.958;-7.470;2023-02-13T03:15:58;101762.13;;;7.15;100.00
64253;BME280;50592;52.958;-7.470;2023-02-13T03:18:46;101755.16;;;7.14;100.00
64253;BME280;50592;52.958;-7.470;2023-02-13T03:22:03;101751.97;;;7.09;100.00
64253;BME280;50592;52.958;-7.470;2023-02-13T03:27:51;101739.09;;;7.04;100.00
64253;BME280;50592;52.958;-7.470;2023-02-13T03:40:08;101740.53;;;6.93;100.00
64253;BME280;50592;52.958;-7.470;2023-02-13T03:42:52;101737.13;;;6.91;100.00
64253;BME280;50592;52.958;-7.470;2023-02-13T03:45:24;101738.00;;;6.92;100.00
64253;BME280;50592;52.958;-7.470;2023-02-13T03:48:11;101733.59;;;6.92;100.00
64253;BME280;50592;52.958;-7.470;2023-02-13T03:51:40;101733.69;;;6.91;100.00
64253;BME280;50592;52.958;-7.470;2023-02-13T03:54:19;101734.50;;;6.91;100.00
64253;BME280;50592;52.958;-7.470;2023-02-13T03:56:48;101731.97;;;6.90;100.00
64253;BME280;50592;52.958;-7.470;2023-02-13T03:59:35;101727.47;;;6.92;100.00
64253;BME280;50592;52.958;-7.470;2023-02-13T04:04:47;101727.47;;;6.92;100.00
64253;BME280;50592;52.958;-7.470;2023-02-13T04:07:17;101730.13;;;6.92;100.00
64253;BME280;50592;52.958;-7.470;2023-02-13T04:10:08;101713.41;;;6.93;100.00
64253;BME280;50592;52.958;-7.470;2023-02-13T04:12:44;101716.03;;;6.93;100.00
64253;BME280;50592;52.958;-7.470;2023-02-13T04:15:15;101711.88;;;6.89;100.00
64253;BME280;50592;52.958;-7.470;2023-02-13T04:17:48;101722.22;;;6.92;100.00
64253;BME280;50592;52.958;-7.470;2023-02-13T04:20:17;101729.59;;;6.85;100.00
64253;BME280;50592;52.958;-7.470;2023-02-13T04:22:44;101727.75;;;6.87;100.00
64253;BME280;50592;52.958;-7.470;2023-02-13T04:25:11;101725.13;;;6.87;100.00
64253;BME280;50592;52.958;-7.470;2023-02-13T04:27:38;101713.94;;;6.83;100.00
64253;BME280;50592;52.958;-7.470;2023-02-13T04:30:05;101716.56;;;6.83;100.00
64253;BME280;50592;52.958;-7.470;2023-02-13T04:32:31;101713.28;;;6.80;100.00
64253;BME280;50592;52.958;-7.470;2023-02-13T04:34:56;101711.47;;;6.80;100.00
64253;BME280;50592;52.958;-7.470;2023-02-13T04:37:22;101704.34;;;6.82;100.00
64253;BME280;50592;52.958;-7.470;2023-02-13T04:39:48;101708.84;;;6.80;100.00
64253;BME280;50592;52.958;-7.470;2023-02-13T04:42:15;101699.28;;;6.79;100.00
64253;BME280;50592;52.958;-7.470;2023-02-13T04:44:41;101707.44;;;6.75;100.00
64253;BME280;50592;52.958;-7.470;2023-02-13T04:47:07;101706.50;;;6.76;100.00
64253;BME280;50592;52.958;-7.470;2023-02-13T04:49:32;101700.31;;;6.77;100.00
64253;BME280;50592;52.958;-7.470;2023-02-13T04:51:58;101705.47;;;6.78;100.00
64253;BME280;50592;52.958;-7.470;2023-02-13T04:54:24;101704.72;;;6.76;100.00
64253;BME280;50592;52.958;-7.470;2023-02-13T04:56:50;101696.91;;;6.75;100.00
64253;BME280;50592;52.958;-7.470;2023-02-13T04:59:16;101703.84;;;6.76;100.00
64253;BME280;50592;52.958;-7.470;2023-02-13T05:01:41;101696.91;;;6.75;100.00
64253;BME280;50592;52.958;-7.470;2023-02-13T05:04:07;101707.25;;;6.78;100.00
64253;BME280;50592;52.958;-7.470;2023-02-13T05:06:34;101698.44;;;6.79;100.00
64253;BME280;50592;52.958;-7.470;2023-02-13T05:09:00;101700.41;;;6.75;100.00
64253;BME280;50592;52.958;-7.470;2023-02-13T05:11:25;101698.19;;;6.67;100.00
64253;BME280;50592;52.958;-7.470;2023-02-13T05:13:51;101690.31;;;6.67;100.00
64253;BME280;50592;52.958;-7.470;2023-02-13T05:16:17;101690.31;;;6.67;100.00
64253;BME280;50592;52.958;-7.470;2023-02-13T05:18:44;101690.41;;;6.66;100.00
64253;BME280;50592;52.958;-7.470;2023-02-13T05:21:11;101687.75;;;6.66;100.00
64253;BME280;50592;52.958;-7.470;2023-02-13T05:23:56;101684.56;;;6.61;100.00
64253;BME280;50592;52.958;-7.470;2023-02-13T05:26:26;101679.97;;;6.64;100.00
64253;BME280;50592;52.958;-7.470;2023-02-13T05:28:52;101683.47;;;6.65;100.00
64253;BME280;50592;52.958;-7.470;2023-02-13T05:31:37;101690.66;;;6.61;100.00
64253;BME280;50592;52.958;-7.470;2023-02-13T05:34:02;101681.19;;;6.58;100.00
64253;BME280;50592;52.958;-7.470;2023-02-13T05:36:28;101689.84;;;6.61;100.00
64253;BME280;50592;52.958;-7.470;2023-02-13T05:38:54;101688.88;;;6.62;100.00
64253;BME280;50592;52.958;-7.470;2023-02-13T05:41:20;101693.28;;;6.61;100.00
64253;BME280;50592;52.958;-7.470;2023-02-13T05:43:46;101691.44;;;6.63;100.00
64253;BME280;50592;52.958;-7.470;2023-02-13T05:46:12;101699.13;;;6.66;100.00
64253;BME280;50592;52.958;-7.470;2023-02-13T05:48:38;101697.38;;;6.67;100.00
64253;BME280;50592;52.958;-7.470;2023-02-13T05:51:04;101698.00;;;6.70;100.00
64253;BME280;50592;52.958;-7.470;2023-02-13T05:53:30;101701.22;;;6.76;100.00
64253;BME280;50592;52.958;-7.470;2023-02-13T05:56:00;101709.03;;;6.77;100.00
64253;BME280;50592;52.958;-7.470;2023-02-13T05:58:27;101708.94;;;6.79;100.00
64253;BME280;50592;52.958;-7.470;2023-02-13T06:00:55;101709.53;;;6.84;100.00
64253;BME280;50592;52.958;-7.470;2023-02-13T06:03:23;101705.22;;;6.83;100.00
64253;BME280;50592;52.958;-7.470;2023-02-13T06:05:49;101711.38;;;6.82;100.00
64253;BME280;50592;52.958;-7.470;2023-02-13T06:08:16;101699.09;;;6.82;100.00
64253;BME280;50592;52.958;-7.470;2023-02-13T06:10:41;101705.03;;;6.86;100.00
64253;BME280;50592;52.958;-7.470;2023-02-13T06:13:07;101704.09;;;6.87;100.00
64253;BME280;50592;52.958;-7.470;2023-02-13T06:15:33;101699.88;;;6.85;100.00
64253;BME280;50592;52.958;-7.470;2023-02-13T06:17:59;101704.00;;;6.89;100.00
64253;BME280;50592;52.958;-7.470;2023-02-13T06:20:26;101708.50;;;6.87;100.00
64253;BME280;50592;52.958;-7.470;2023-02-13T06:22:52;101699.69;;;6.88;100.00
64253;BME280;50592;52.958;-7.470;2023-02-13T06:25:18;101694.34;;;6.89;100.00
64253;BME280;50592;52.958;-7.470;2023-02-13T06:27:44;101701.19;;;6.92;100.00
64253;BME280;50592;52.958;-7.470;2023-02-13T06:30:11;101694.53;;;6.86;100.00
64253;BME280;50592;52.958;-7.470;2023-02-13T06:32:37;101690.09;;;6.87;100.00
64253;BME280;50592;52.958;-7.470;2023-02-13T06:35:03;101700.53;;;6.88;100.00
64253;BME280;50592;52.958;-7.470;2023-02-13T06:37:29;101693.31;;;6.92;100.00
64253;BME280;50592;52.958;-7.470;2023-02-13T06:39:55;101683.66;;;6.92;100.00
64253;BME280;50592;52.958;-7.470;2023-02-13T06:42:21;101690.41;;;6.97;100.00
64253;BME280;50592;52.958;-7.470;2023-02-13T06:44:47;101674.06;;;6.91;100.00
64253;BME280;50592;52.958;-7.470;2023-02-13T06:47:14;101681.03;;;6.92;100.00
64253;BME280;50592;52.958;-7.470;2023-02-13T06:49:39;101685.50;;;6.90;100.00
64253;BME280;50592;52.958;-7.470;2023-02-13T06:52:05;101679.13;;;6.94;100.00
64253;BME280;50592;52.958;-7.470;2023-02-13T06:54:31;101680.06;;;6.93;100.00
64253;BME280;50592;52.958;-7.470;2023-02-13T06:56:58;101677.53;;;6.92;100.00
64253;BME280;50592;52.958;-7.470;2023-02-13T06:59:24;101682.78;;;6.92;100.00
64253;BME280;50592;52.958;-7.470;2023-02-13T07:01:49;101683.66;;;6.92;100.00
64253;BME280;50592;52.958;-7.470;2023-02-13T07:04:15;101676.69;;;6.91;100.00
64253;BME280;50592;52.958;-7.470;2023-02-13T07:06:42;101681.94;;;6.91;100.00
64253;BME280;50592;52.958;-7.470;2023-02-13T07:09:07;101681.13;;;6.91;100.00
64253;BME280;50592;52.958;-7.470;2023-02-13T07:11:33;101677.63;;;6.90;100.00
64253;BME280;50592;52.958;-7.470;2023-02-13T07:13:59;101684.00;;;6.86;100.00
64253;BME280;50592;52.958;-7.470;2023-02-13T07:16:25;101682.38;;;6.83;100.00
64253;BME280;50592;52.958;-7.470;2023-02-13T07:18:51;101693.50;;;6.89;100.00
64253;BME280;50592;52.958;-7.470;2023-02-13T07:21:16;101693.75;;;6.84;100.00
64253;BME280;50592;52.958;-7.470;2023-02-13T07:23:42;101692.91;;;6.83;100.00
64253;BME280;50592;52.958;-7.470;2023-02-13T07:26:09;101695.34;;;6.87;100.00
64253;BME280;50592;52.958;-7.470;2023-02-13T07:28:35;101686.91;;;6.81;100.00
64253;BME280;50592;52.958;-7.470;2023-02-13T07:31:03;101684.19;;;6.83;100.00
64253;BME280;50592;52.958;-7.470;2023-02-13T07:33:32;101689.63;;;6.80;100.00
64253;BME280;50592;52.958;-7.470;2023-02-13T07:35:59;101690.53;;;6.79;100.00
64253;BME280;50592;52.958;-7.470;2023-02-13T07:38:31;101689.63;;;6.80;100.00
64253;BME280;50592;52.958;-7.470;2023-02-13T07:40:59;101704.09;;;6.87;100.00
64253;BME280;50592;52.958;-7.470;2023-02-13T07:43:25;101698.94;;;6.86;100.00
64253;BME280;50592;52.958;-7.470;2023-02-13T07:45:51;101702.31;;;6.88;100.00
64253;BME280;50592;52.958;-7.470;2023-02-13T07:48:21;101690.88;;;6.89;100.00
64253;BME280;50592;52.958;-7.470;2023-02-13T07:50:47;101682.97;;;6.89;100.00
64253;BME280;50592;52.958;-7.470;2023-02-13T07:53:13;101686.28;;;6.92;100.00
64253;BME280;50592;52.958;-7.470;2023-02-13T07:55:40;101684.38;;;6.94;100.00
64253;BME280;50592;52.958;-7.470;2023-02-13T07:58:06;101682.78;;;6.92;100.00
64253;BME280;50592;52.958;-7.470;2023-02-13T08:00:31;101689.75;;;6.93;100.00
64253;BME280;50592;52.958;-7.470;2023-02-13T08:03:01;101684.28;;;6.96;100.00
64253;BME280;50592;52.958;-7.470;2023-02-13T08:05:28;101686.94;;;6.96;100.00
64253;BME280;50592;52.958;-7.470;2023-02-13T08:07:55;101694.81;;;6.96;100.00
64253;BME280;50592;52.958;-7.470;2023-02-13T08:10:21;101690.41;;;6.97;100.00
64253;BME280;50592;52.958;-7.470;2023-02-13T08:13:06;101692.94;;;6.98;100.00
64253;BME280;50592;52.958;-7.470;2023-02-13T08:15:33;101696.53;;;6.97;100.00
64253;BME280;50592;52.958;-7.470;2023-02-13T08:17:59;101696.34;;;7.00;100.00
64253;BME280;50592;52.958;-7.470;2023-02-13T08:20:25;101703.19;;;7.03;100.00
64253;BME280;50592;52.958;-7.470;2023-02-13T08:22:51;101704.81;;;7.05;100.00
64253;BME280;50592;52.958;-7.470;2023-02-13T08:25:17;101695.97;;;7.06;100.00
64253;BME280;50592;52.958;-7.470;2023-02-13T08:27:47;101702.75;;;7.11;100.00
64253;BME280;50592;52.958;-7.470;2023-02-13T08:30:14;101705.28;;;7.12;100.00
64253;BME280;50592;52.958;-7.470;2023-02-13T08:32:40;101711.97;;;7.18;100.00
64253;BME280;50592;52.958;-7.470;2023-02-13T08:35:07;101705.69;;;7.20;100.00
64253;BME280;50592;52.958;-7.470;2023-02-13T08:37:32;101705.59;;;7.22;100.00
64253;BME280;50592;52.958;-7.470;2023-02-13T08:39:58;101698.75;;;7.19;100.00
64253;BME280;50592;52.958;-7.470;2023-02-13T08:42:24;101689.03;;;7.20;100.00
64253;BME280;50592;52.958;-7.470;2023-02-13T08:44:51;101699.38;;;7.23;100.00
64253;BME280;50592;52.958;-7.470;2023-02-13T08:47:17;101694.13;;;7.23;100.00
64253;BME280;50592;52.958;-7.470;2023-02-13T08:49:43;101696.84;;;7.22;100.00
64253;BME280;50592;52.958;-7.470;2023-02-13T08:52:08;101689.81;;;7.22;100.00
64253;BME280;50592;52.958;-7.470;2023-02-13T08:54:34;101692.44;;;7.22;100.00
64253;BME280;50592;52.958;-7.470;2023-02-13T08:57:01;101691.59;;;7.22;100.00
64253;BME280;50592;52.958;-7.470;2023-02-13T08:59:27;101692.53;;;7.20;100.00
64253;BME280;50592;52.958;-7.470;2023-02-13T09:01:53;101696.03;;;7.21;100.00
64253;BME280;50592;52.958;-7.470;2023-02-13T09:04:19;101689.63;;;7.25;100.00
64253;BME280;50592;52.958;-7.470;2023-02-13T09:06:44;101684.38;;;7.25;100.00
64253;BME280;50592;52.958;-7.470;2023-02-13T09:09:13;101684.19;;;7.28;100.00
64253;BME280;50592;52.958;-7.470;2023-02-13T09:11:38;101694.69;;;7.28;100.00
64253;BME280;50592;52.958;-7.470;2023-02-13T09:14:05;101685.72;;;7.32;100.00
64253;BME280;50592;52.958;-7.470;2023-02-13T09:16:31;101688.34;;;7.32;100.00
64253;BME280;50592;52.958;-7.470;2023-02-13T09:18:57;101689.84;;;7.37;100.00
64253;BME280;50592;52.958;-7.470;2023-02-13T09:21:23;101682.72;;;7.39;100.00
64253;BME280;50592;52.958;-7.470;2023-02-13T09:23:50;101673.78;;;7.41;100.00
64253;BME280;50592;52.958;-7.470;2023-02-13T09:26:17;101676.31;;;7.43;100.00
64253;BME280;50592;52.958;-7.470;2023-02-13T09:28:43;101683.25;;;7.44;100.00
64253;BME280;50592;52.958;-7.470;2023-02-13T09:31:11;101683.06;;;7.47;100.00
64253;BME280;50592;52.958;-7.470;2023-02-13T09:33:39;101676.88;;;7.48;100.00
64253;BME280;50592;52.958;-7.470;2023-02-13T09:36:08;101682.16;;;7.48;100.00
64253;BME280;50592;52.958;-7.470;2023-02-13T09:38:34;101677.44;;;7.53;100.00
64253;BME280;50592;52.958;-7.470;2023-02-13T09:46:38;101674.72;;;7.69;100.00
64253;BME280;50592;52.958;-7.470;2023-02-13T09:49:10;101676.31;;;7.72;100.00
64253;BME280;50592;52.958;-7.470;2023-02-13T09:51:37;101669.91;;;7.76;100.00
64253;BME280;50592;52.958;-7.470;2023-02-13T09:54:07;101661.16;;;7.90;100.00
64253;BME280;50592;52.958;-7.470;2023-02-13T10:02:17;101670.28;;;7.99;100.00
64253;BME280;50592;52.958;-7.470;2023-02-13T10:04:47;101668.66;;;7.97;100.00
64253;BME280;50592;52.958;-7.470;2023-02-13T10:18:08;101652.19;;;8.07;100.00
64253;BME280;50592;52.958;-7.470;2023-02-13T10:20:46;101648.97;;;8.17;100.00
64253;BME280;50592;52.958;-7.470;2023-02-13T10:26:00;101656.00;;;8.31;100.00
64253;BME280;50592;52.958;-7.470;2023-02-13T10:30:57;101669.69;;;8.36;100.00
64253;BME280;50592;52.958;-7.470;2023-02-13T10:33:33;101664.22;;;8.39;100.00
64253;BME280;50592;52.958;-7.470;2023-02-13T10:38:43;101661.47;;;8.41;100.00
64253;BME280;50592;52.958;-7.470;2023-02-13T10:44:17;101668.25;;;8.45;100.00
64253;BME280;50592;52.958;-7.470;2023-02-13T10:49:36;101673.31;;;8.63;100.00
64253;BME280;50592;52.958;-7.470;2023-02-13T10:55:40;101673.22;;;8.64;100.00
64253;BME280;50592;52.958;-7.470;2023-02-13T11:04:10;101672.00;;;8.55;100.00
64253;BME280;50592;52.958;-7.470;2023-02-13T11:09:18;101672.06;;;8.54;100.00
64253;BME280;50592;52.958;-7.470;2023-02-13T11:11:44;101670.31;;;8.54;100.00
64253;BME280;50592;52.958;-7.470;2023-02-13T11:14:24;101678.78;;;8.60;100.00
64253;BME280;50592;52.958;-7.470;2023-02-13T11:17:03;101677.94;;;8.59;100.00
64253;BME280;50592;52.958;-7.470;2023-02-13T11:19:33;101672.75;;;8.58;100.00
64253;BME280;50592;52.958;-7.470;2023-02-13T11:22:11;101670.03;;;8.59;100.00
64253;BME280;50592;52.958;-7.470;2023-02-13T11:24:49;101672.84;;;8.56;100.00
64253;BME280;50592;52.958;-7.470;2023-02-13T11:27:23;101671.19;;;8.55;100.00
64253;BME280;50592;52.958;-7.470;2023-02-13T11:29:52;101669.53;;;8.52;100.00
64253;BME280;50592;52.958;-7.470;2023-02-13T11:32:30;101667.59;;;8.56;100.00
64253;BME280;50592;52.958;-7.470;2023-02-13T11:34:57;101669.44;;;8.54;100.00
64253;BME280;50592;52.958;-7.470;2023-02-13T11:37:28;101670.22;;;8.56;100.00
64253;BME280;50592;52.958;-7.470;2023-02-13T11:39:57;101666.31;;;8.62;100.00
64253;BME280;50592;52.958;-7.470;2023-02-13T11:42:34;101663.50;;;8.65;100.00
64253;BME280;50592;52.958;-7.470;2023-02-13T11:45:18;101660.75;;;8.66;100.00
64253;BME280;50592;52.958;-7.470;2023-02-13T11:47:45;101652.03;;;8.66;100.00
64253;BME280;50592;52.958;-7.470;2023-02-13T11:50:31;101647.81;;;8.76;100.00
64253;BME280;50592;52.958;-7.470;2023-02-13T11:53:03;101639.69;;;8.79;100.00
64253;BME280;50592;52.958;-7.470;2023-02-13T11:55:36;101640.03;;;8.88;100.00
64253;BME280;50592;52.958;-7.470;2023-02-13T11:58:22;101635.28;;;8.93;100.00
64253;BME280;50592;52.958;-7.470;2023-02-13T12:00:48;101642.25;;;8.94;100.00
64253;BME280;50592;52.958;-7.470;2023-02-13T12:08:34;101637.09;;;8.92;100.00
64253;BME280;50592;52.958;-7.470;2023-02-13T12:11:06;101633.91;;;8.87;100.00
64253;BME280;50592;52.958;-7.470;2023-02-13T12:13:36;101623.16;;;8.90;100.00
64253;BME280;50592;52.958;-7.470;2023-02-13T12:16:16;101624.97;;;8.90;100.00
64253;BME280;50592;52.958;-7.470;2023-02-13T12:18:50;101630.44;;;8.87;100.00
64253;BME280;50592;52.958;-7.470;2023-02-13T12:21:43;101625.16;;;8.87;100.00
64253;BME280;50592;52.958;-7.470;2023-02-13T12:27:03;101610.78;;;8.78;100.00
64253;BME280;50592;52.958;-7.470;2023-02-13T12:32:20;101615.66;;;8.97;100.00
64253;BME280;50592;52.958;-7.470;2023-02-13T12:41:15;101607.56;;;9.13;100.00
64253;BME280;50592;52.958;-7.470;2023-02-13T12:57:37;101588.63;;;9.46;100.00
64253;BME280;50592;52.958;-7.470;2023-02-13T13:05:30;101597.63;;;9.30;100.00
64253;BME280;50592;52.958;-7.470;2023-02-13T13:16:17;101586.44;;;9.13;100.00
64253;BME280;50592;52.958;-7.470;2023-02-13T13:21:40;101585.06;;;9.21;100.00
64253;BME280;50592;52.958;-7.470;2023-02-13T13:26:54;101564.91;;;9.20;100.00
64253;BME280;50592;52.958;-7.470;2023-02-13T13:29:29;101570.94;;;9.22;100.00
64253;BME280;50592;52.958;-7.470;2023-02-13T13:32:05;101564.06;;;9.19;100.00
64253;BME280;50592;52.958;-7.470;2023-02-13T13:34:33;101566.38;;;9.24;100.00
64253;BME280;50592;52.958;-7.470;2023-02-13T13:37:09;101555.22;;;9.20;100.00
64253;BME280;50592;52.958;-7.470;2023-02-13T13:42:44;101552.47;;;9.22;100.00
64253;BME280;50592;52.958;-7.470;2023-02-13T13:50:39;101559.53;;;9.08;100.00
64253;BME280;50592;52.958;-7.470;2023-02-13T13:53:12;101559.22;;;9.13;100.00
64253;BME280;50592;52.958;-7.470;2023-02-13T14:04:02;101543.13;;;9.04;100.00
64253;BME280;50592;52.958;-7.470;2023-02-13T14:09:36;101524.53;;;9.06;100.00
64253;BME280;50592;52.958;-7.470;2023-02-13T14:14:51;101527.69;;;9.11;100.00
64253;BME280;50592;52.958;-7.470;2023-02-13T14:26:30;101526.41;;;9.30;100.00
64253;BME280;50592;52.958;-7.470;2023-02-13T14:31:41;101524.03;;;9.38;100.00
64253;BME280;50592;52.958;-7.470;2023-02-13T14:34:18;101519.56;;;9.52;100.00
64253;BME280;50592;52.958;-7.470;2023-02-13T14:37:05;101512.19;;;9.57;100.00
64253;BME280;50592;52.958;-7.470;2023-02-13T14:39:33;101516.59;;;9.57;100.00
64253;BME280;50592;52.958;-7.470;2023-02-13T14:42:02;101507.84;;;9.56;100.00
64253;BME280;50592;52.958;-7.470;2023-02-13T14:47:03;101497.34;;;9.67;100.00
64253;BME280;50592;52.958;-7.470;2023-02-13T14:49:35;101497.78;;;9.61;100.00
64253;BME280;50592;52.958;-7.470;2023-02-13T14:52:12;101509.19;;;9.62;100.00
64253;BME280;50592;52.958;-7.470;2023-02-13T14:54:53;101504.28;;;9.68;100.00
64253;BME280;50592;52.958;-7.470;2023-02-13T14:57:22;101486.78;;;9.67;100.00
64253;BME280;50592;52.958;-7.470;2023-02-13T14:59:53;101492.91;;;9.68;100.00
64253;BME280;50592;52.958;-7.470;2023-02-13T15:02:30;101488.47;;;9.68;100.00
64253;BME280;50592;52.958;-7.470;2023-02-13T15:05:01;101496.25;;;9.70;100.00
64253;BME280;50592;52.958;-7.470;2023-02-13T15:07:51;101486.56;;;9.71;100.00
64253;BME280;50592;52.958;-7.470;2023-02-13T15:13:01;101488.69;;;9.65;100.00
64253;BME280;50592;52.958;-7.470;2023-02-13T15:15:30;101479.09;;;9.64;100.00
64253;BME280;50592;52.958;-7.470;2023-02-13T15:18:17;101471.63;;;9.58;100.00
64253;BME280;50592;52.958;-7.470;2023-02-13T15:20:45;101478.69;;;9.58;100.00
64253;BME280;50592;52.958;-7.470;2023-02-13T15:23:22;101484.72;;;9.60;100.00
64253;BME280;50592;52.958;-7.470;2023-02-13T15:26:01;101475.59;;;9.64;100.00
64253;BME280;50592;52.958;-7.470;2023-02-13T15:28:28;101477.41;;;9.63;100.00
64253;BME280;50592;52.958;-7.470;2023-02-13T15:31:00;101484.81;;;9.58;100.00
64253;BME280;50592;52.958;-7.470;2023-02-13T15:36:01;101475.94;;;9.59;100.00
64253;BME280;50592;52.958;-7.470;2023-02-13T15:38:32;101466.97;;;9.62;100.00
64253;BME280;50592;52.958;-7.470;2023-02-13T15:41:09;101473.59;;;9.67;100.00
64253;BME280;50592;52.958;-7.470;2023-02-13T15:43:38;101468.19;;;9.69;100.00
64253;BME280;50592;52.958;-7.470;2023-02-13T15:46:27;101471.22;;;9.76;100.00
64253;BME280;50592;52.958;-7.470;2023-02-13T15:49:06;101474.47;;;9.79;100.00
64253;BME280;50592;52.958;-7.470;2023-02-13T15:51:33;101476.41;;;9.77;100.00
64253;BME280;50592;52.958;-7.470;2023-02-13T15:54:00;101476.63;;;9.74;100.00
64253;BME280;50592;52.958;-7.470;2023-02-13T15:56:27;101481.56;;;9.79;100.00
64253;BME280;50592;52.958;-7.470;2023-02-13T15:58:54;101476.50;;;9.76;100.00